AirNav   ATP
 
 677 users online  

CL35 Warner Springs Gliderport
Warner Springs, California, USA

GOING TO WARNER SPRINGS?


FAA INFORMATION EFFECTIVE 07 DECEMBER 2017

Location

FAA Identifier: CL35
Lat/Long: 33-17-04.2100N / 116-40-10.7650W
33-17.070167N / 116-40.179417W
33.2845028 / -116.6696569
(estimated)
Elevation: 2880 ft. / 878 m (estimated)
Variation: 13E (1985)
From city: 2 miles E of WARNER SPRINGS, CA
Time zone: UTC -8 (UTC -7 during Daylight Saving Time)
Zip code: 92086

Gliderport Operations

Gliderport use: Private use. Permission required prior to landing
Activation date: 10/1984
Control tower: no
ARTCC: LOS ANGELES CENTER
FSS: SAN DIEGO FLIGHT SERVICE STATION
Attendance: 0900-1700
Wind indicator: yes
Segmented circle: yes
Landing fee: yes

Gliderport Communications

UNICOM: 122.8
WX AWOS-1 at L08 (18 nm E): 126.575 (760-767-3308)
WX ASOS at RNM (19 nm SW): 132.025 (760-789-0736)

Nearby radio navigation aids

VOR radial/distance  VOR name  Freq  Var
JLIr319/9.6JULIAN VORTAC114.0015E
TRMr218/32.8THERMAL VORTAC116.2013E
PSPr186/37.1PALM SPRINGS VORTAC115.5013E
OCNr071/37.6OCEANSIDE VORTAC115.3015E
HDFr125/(39.2)HOMELAND VOR113.4014E

Gliderport Services

Runway Information

Runway 8/26

Dimensions: 3500 x 70 ft. / 1067 x 21 m
Surface: asphalt
RUNWAY 8  RUNWAY 26
Latitude: 33-17.060333N33-17.080000N
Longitude: 116-40.522667W116-39.836167W
Elevation: 2873.0 ft.2914.0 ft.
Traffic pattern: leftleft
Obstructions: none200 ft. hill, 5200 ft. from runway

Gliderport Ownership and Management from official FAA records

Ownership: Privately-owned
Owner: WARNER SPRINGS RANCH RESORT, LLC
31930 HWY 79
WARNER SPRINGS, CA 92086
Phone 760-782-4200
SKY SAILING 31930 HWY 79.
Manager: BRET WILLAT
SKY SAILING 31930 HWY 79
WARNER SPRINGS, CA 92086
Phone 760-782-0404
LEASEE.

Gliderport Operational Statistics

Aircraft based on the field: 80
Single engine airplanes: 10
Gliders airplanes: 70
    

Instrument Procedures

There are no published instrument procedures at CL35.

Some nearby airports with instrument procedures:

L08 - Borrego Valley Airport (18 nm E)
KRNM - Ramona Airport (19 nm SW)
F70 - French Valley Airport (29 nm NW)
L18 - Fallbrook Community Airpark (29 nm W)
KSEE - Gillespie Field Airport (31 nm SW)
 
Loc | Ops | Rwys | IFR | FBO | Links
Com | Nav | Svcs | Stats | Notes


 
Area around CL35 (Warner Springs Gliderport)
 
Road maps at: MapQuest Bing Google
 
Aerial photo
WARNING: Photo may not be current or correct
Aerial photo of CL35 (Warner Springs Gliderport)
Photo by Steve Lupinacci
Photo taken 27-May-2008

Do you have a better or more recent aerial photo of Warner Springs Gliderport that you would like to share? If so, please send us your photo.

 
Sectional chart

 
Airport distance calculator
Flying to Warner Springs Gliderport? Find the distance to fly.

From to CL35

Sunrise and sunset
Times for 13-Dec-2017
 Local
(UTC-8)
 Zulu
(UTC)
Morning civil twilight06:1514:15
Sunrise06:4314:43
Sunset16:3900:39
Evening civil twilight17:0701:07

Current date and time
Zulu (UTC)  14-Dec-2017 04:45:17
Local (UTC-8)  13-Dec-2017 20:45:17
 
METAR
KRNM 
20nm SW 
140353Z 15005KT 10SM CLR 07/M08 A3000 RMK AO2 SLP154 T00671083
KF70 
29nm NW 
140435Z AUTO 00000KT 10SM CLR 11/M07 A2999 RMK AO1
KL18 
29nm W 
140435Z AUTO 34006KT 10SM CLR 14/M08 A2998 RMK AO2
KSEE 
32nm SW 
140435Z AUTO 30003KT 10SM CLR 12/M10 A2997 RMK AO2
KCRQ 
32nm W 
140353Z 11003KT 10SM CLR 14/M02 A2995 RMK AO2 SLP141 T01391017
KTRM 
33nm NE 
140352Z AUTO 34003KT 10SM CLR 09/02 A2991 RMK AO2 SLP127 T00940017
KPSP 
33nm N 
140353Z VRB03KT 10SM CLR 16/M09 A2995 RMK AO2 SLP144 T01561089
KNFG 
33nm W 
140355Z 06004KT 7SM CLR 09/M06 A2996 RMK AO2 SLP146 T00941061
KNKX 
34nm SW 
140355Z 12006KT 10SM CLR 12/M13 A2997 RMK AO2 SLP145 T01221128
KOKB 
34nm W 
130752Z AUTO 00000KT 10SM 06/00 A3002 RMK AO2 SLP164 T00560000 402560033 $
TAF
KCRQ 
32nm W 
131728Z 1318/1418 VRB05KT P6SM SKC FM140800 VRB03KT P6SM SCT005 FM141600 VRB05KT P6SM SKC
KTRM 
33nm NE 
131728Z 1318/1418 VRB05KT P6SM SKC FM141700 32010G20KT P6SM SKC
KPSP 
33nm N 
131728Z 1318/1418 VRB05KT P6SM SKC FM141300 33015G25KT P6SM SKC
KNFG 
33nm W 
1403/1503 VRB05KT 9999 FEW200 QNH2992INS BECMG 1415/1417 25007KT 9999 FEW200 QNH2996INS T03/1415Z T27/1421Z
KNKX 
34nm SW 
1403/1503 08006KT 9999 SCT250 QNH2993INS BECMG 1416/1418 28010KT 9999 FEW250 QNH2995INS TEMPO 1420/1501 32010G20KT T11/1414Z T28/1421Z
NOTAMs
Click for the latest NOTAMs
NOTAMs are issued by the DoD/FAA and will open in a separate window not controlled by AirNav.

 

 
 

Would you like to see your business listed on this page?

 If your business provides an interesting product or service to pilots, flight crews, aircraft, or users of the Warner Springs Gliderport, you should consider listing it here.  To start the listing process, click on the button below
 
Add a business
 

Other Pages about Warner Springs Gliderport

www.agcsc.org/warner_springs_info.html
 
Update a link
 
Copyright © AirNav, LLC. All rights reserved. Privacy Policy  Contact